createdAt,value
2023-03-07T00:23:02.296Z,2.30
2023-03-07T00:25:29.797Z,3.90
2023-03-07T00:27:59.993Z,3.45
2023-03-07T00:30:29.794Z,2.90
2023-03-07T00:32:59.571Z,3.30
2023-03-07T00:35:29.374Z,3.70
2023-03-07T00:38:05.834Z,3.78
2023-03-07T00:44:07.818Z,4.60
2023-03-07T00:47:23.076Z,3.47
2023-03-07T00:56:13.071Z,3.78
2023-03-07T00:59:28.519Z,4.20
2023-03-07T01:05:21.022Z,5.35
2023-03-07T01:07:53.238Z,4.50
2023-03-07T01:10:46.293Z,6.18
2023-03-07T01:16:23.952Z,5.35
2023-03-07T01:18:56.172Z,5.38
2023-03-07T01:21:32.772Z,5.50
2023-03-07T01:24:30.610Z,4.45
2023-03-07T01:27:09.275Z,5.80
2023-03-07T01:29:43.852Z,4.68
2023-03-07T01:35:18.711Z,6.20
2023-03-07T01:37:57.420Z,5.65
2023-03-07T01:41:13.155Z,7.05
2023-03-07T01:43:51.365Z,7.63
2023-03-07T01:46:25.525Z,4.82
2023-03-07T01:49:24.521Z,4.72
2023-03-07T01:53:01.300Z,6.38
2023-03-07T01:56:08.547Z,5.85
2023-03-07T02:01:52.794Z,6.38
2023-03-07T02:04:45.316Z,7.57
2023-03-07T02:07:27.936Z,3.40
2023-03-07T02:09:57.221Z,7.15
2023-03-07T02:12:34.205Z,6.35
2023-03-07T02:15:11.954Z,7.15
2023-03-07T02:17:44.360Z,7.93
2023-03-07T02:20:27.662Z,7.22
2023-03-07T02:22:55.379Z,6.75
2023-03-07T02:25:43.712Z,7.82
2023-03-07T02:28:16.716Z,7.80
2023-03-07T02:31:09.863Z,7.43
2023-03-07T02:33:38.369Z,6.57
2023-03-07T02:36:35.352Z,8.57
2023-03-07T02:39:14.924Z,6.18
2023-03-07T02:41:45.851Z,7.70
2023-03-07T02:46:55.762Z,6.30
2023-03-07T02:49:28.883Z,10.18
2023-03-07T02:52:00.511Z,7.10
2023-03-07T02:54:28.648Z,11.55
2023-03-07T02:56:57.134Z,10.90
2023-03-07T02:59:24.754Z,8.27
2023-03-07T03:01:52.538Z,9.55
2023-03-07T03:05:10.851Z,17.02
2023-03-07T03:12:08.726Z,10.00
2023-03-07T03:15:21.253Z,11.48
2023-03-07T03:18:17.407Z,21.38
2023-03-07T03:21:45.248Z,7.53
2023-03-07T03:24:13.227Z,17.55
2023-03-07T03:27:12.308Z,9.98
2023-03-07T03:29:53.753Z,12.07
2023-03-07T03:32:40.796Z,10.52
2023-03-07T03:35:24.946Z,9.85
2023-03-07T03:38:02.207Z,10.73
2023-03-07T03:40:32.278Z,9.73
2023-03-07T03:42:59.949Z,10.02
2023-03-07T03:45:30.813Z,9.57
2023-03-07T03:47:58.588Z,8.32
2023-03-07T03:53:40.809Z,7.97
2023-03-07T03:56:46.279Z,8.63
2023-03-07T04:00:17.182Z,8.82
2023-03-07T04:02:50.442Z,8.13
2023-03-07T04:05:53.611Z,7.90
2023-03-07T04:09:09.814Z,6.63
2023-03-07T04:11:53.278Z,7.00
2023-03-07T04:15:33.959Z,5.93
2023-03-07T04:18:05.659Z,6.28
2023-03-07T04:30:24.111Z,5.57
2023-03-07T04:36:29.338Z,4.97
2023-03-07T04:39:30.612Z,2.80
2023-03-07T04:46:04.355Z,3.63
2023-03-07T04:49:00.738Z,3.40
2023-03-07T04:56:10.552Z,2.92
2023-03-07T04:59:14.947Z,4.32
2023-03-07T05:02:54.229Z,3.38
2023-03-07T05:06:15.630Z,4.30
2023-03-07T05:13:34.630Z,2.90
2023-03-07T05:16:25.624Z,2.20
2023-03-07T05:19:17.820Z,3.03
2023-03-07T05:22:27.826Z,2.90
2023-03-07T05:28:35.543Z,2.80
2023-03-07T05:31:03.497Z,2.53
2023-03-07T05:33:43.401Z,1.95
2023-03-07T05:36:14.925Z,1.90
2023-03-07T05:38:56.986Z,1.98
2023-03-07T05:41:35.519Z,2.05
2023-03-07T05:44:48.864Z,4.60
2023-03-07T05:47:44.759Z,4.85
2023-03-07T05:54:51.326Z,2.60
2023-03-07T05:57:19.930Z,1.52
2023-03-07T05:59:47.711Z,1.98
2023-03-07T06:02:19.576Z,1.90
2023-03-07T06:04:50.224Z,1.10
2023-03-07T06:07:20.347Z,1.10
2023-03-07T06:09:48.298Z,0.95
2023-03-07T06:12:15.963Z,0.70
2023-03-07T06:14:43.476Z,1.88
2023-03-07T06:17:25.440Z,1.23
2023-03-07T06:19:57.551Z,1.88
2023-03-07T06:22:25.204Z,1.23
2023-03-07T06:24:55.771Z,1.00
2023-03-07T06:27:26.924Z,1.10
2023-03-07T06:29:59.606Z,1.08
2023-03-07T06:32:34.860Z,0.45
2023-03-07T06:35:07.181Z,0.70
2023-03-07T06:37:44.730Z,0.60
2023-03-07T06:40:19.147Z,0.52
2023-03-07T06:43:49.305Z,0.82
2023-03-07T06:46:26.092Z,0.80
2023-03-07T06:49:02.081Z,0.90
2023-03-07T06:51:53.805Z,0.95
2023-03-07T06:54:26.361Z,0.80
2023-03-07T06:56:59.999Z,1.15
2023-03-07T06:59:33.338Z,1.17
2023-03-07T07:02:04.542Z,1.33
2023-03-07T07:04:36.234Z,0.70
2023-03-07T07:07:03.832Z,1.48
2023-03-07T07:09:34.640Z,1.58
2023-03-07T07:12:02.581Z,1.10
2023-03-07T07:14:36.649Z,1.48
2023-03-07T07:17:05.542Z,1.05
2023-03-07T07:19:38.944Z,0.68
2023-03-07T07:22:11.841Z,1.73
2023-03-07T07:24:40.266Z,1.38
2023-03-07T07:27:19.782Z,0.47
2023-03-07T07:29:48.315Z,0.70
2023-03-07T07:32:16.076Z,1.20
2023-03-07T07:34:43.697Z,0.95
2023-03-07T07:37:11.471Z,2.25
2023-03-07T07:39:43.006Z,2.97
2023-03-07T07:42:11.924Z,3.22
2023-03-07T07:44:51.324Z,3.80
2023-03-07T07:47:19.439Z,1.90
2023-03-07T07:49:47.116Z,2.30
2023-03-07T07:52:18.129Z,24.70
2023-03-07T07:54:48.050Z,24.63
2023-03-07T07:57:16.092Z,12.05
2023-03-07T07:59:43.185Z,7.00
2023-03-07T08:02:13.929Z,5.10
2023-03-07T08:04:41.179Z,1.83
2023-03-07T08:07:08.753Z,1.30
2023-03-07T08:09:38.816Z,1.60
2023-03-07T08:14:36.053Z,1.65
2023-03-07T08:17:05.669Z,1.50
2023-03-07T08:19:33.364Z,1.85
2023-03-07T08:22:03.794Z,0.85
2023-03-07T08:27:58.761Z,1.23
2023-03-07T08:30:53.264Z,2.15
2023-03-07T08:33:23.308Z,1.77
2023-03-07T08:36:24.516Z,1.10
2023-03-07T08:39:04.716Z,1.75
2023-03-07T08:41:46.056Z,1.02
2023-03-07T08:44:15.076Z,1.10
2023-03-07T08:46:50.980Z,1.27
2023-03-07T08:52:52.472Z,1.50
2023-03-07T08:55:24.168Z,1.45
2023-03-07T08:57:58.265Z,0.80
2023-03-07T09:00:25.583Z,1.30
2023-03-07T09:02:58.577Z,1.20
2023-03-07T09:05:49.937Z,0.60
2023-03-07T09:08:19.869Z,0.65
2023-03-07T09:10:50.536Z,1.00
2023-03-07T09:13:21.437Z,1.20
2023-03-07T09:15:49.576Z,1.02
2023-03-07T09:18:20.102Z,1.23
2023-03-07T09:20:47.796Z,0.90
2023-03-07T09:23:14.847Z,1.60
2023-03-07T09:25:44.680Z,0.90
2023-03-07T09:28:12.633Z,1.10
2023-03-07T09:30:43.240Z,0.77
2023-03-07T09:33:10.792Z,1.08
2023-03-07T09:35:41.292Z,0.68
2023-03-07T09:38:10.544Z,0.80
2023-03-07T09:40:38.557Z,1.02
2023-03-07T09:43:25.407Z,1.17
2023-03-07T09:46:34.746Z,0.60
2023-03-07T09:49:33.651Z,0.93
2023-03-07T09:52:11.848Z,0.80
2023-03-07T09:54:49.645Z,0.75
2023-03-07T09:57:28.072Z,1.88
2023-03-07T10:02:59.225Z,1.70
2023-03-07T10:05:58.156Z,1.35
2023-03-07T10:08:34.721Z,1.23
2023-03-07T10:11:20.137Z,3.92
2023-03-07T10:14:25.933Z,2.88
2023-03-07T10:17:12.289Z,1.80
2023-03-07T10:19:54.319Z,1.90
2023-03-07T10:25:22.143Z,6.68
2023-03-07T10:27:52.337Z,7.07
2023-03-07T10:30:21.129Z,4.28
2023-03-07T10:32:53.378Z,2.65
2023-03-07T10:35:39.301Z,1.58
2023-03-07T10:38:51.785Z,2.67
2023-03-07T10:41:21.530Z,1.50
2023-03-07T10:43:50.401Z,2.47
2023-03-07T10:46:41.578Z,2.50
2023-03-07T10:49:22.020Z,3.95
2023-03-07T10:52:03.801Z,7.15
2023-03-07T10:54:37.039Z,2.03
2023-03-07T10:57:15.466Z,1.92
2023-03-07T10:59:48.424Z,1.40
2023-03-07T11:02:49.003Z,2.90
2023-03-07T11:05:33.488Z,1.30
2023-03-07T11:08:28.224Z,1.95
2023-03-07T11:11:05.110Z,0.93
2023-03-07T11:13:57.324Z,1.17
2023-03-07T11:16:27.778Z,1.30
2023-03-07T11:18:58.995Z,3.13
2023-03-07T11:21:31.931Z,1.25
2023-03-07T11:24:11.513Z,1.05
2023-03-07T11:26:40.669Z,1.25
2023-03-07T11:29:13.085Z,2.97
2023-03-07T11:32:10.947Z,4.68
2023-03-07T11:34:55.677Z,1.27
2023-03-07T11:37:53.822Z,3.80
2023-03-07T11:41:00.711Z,4.45
2023-03-07T11:43:59.946Z,3.38
2023-03-07T11:46:44.301Z,2.42
2023-03-07T11:49:21.880Z,1.85
2023-03-07T11:51:49.529Z,1.05
2023-03-07T11:54:30.869Z,0.80
2023-03-07T11:57:11.746Z,0.73
2023-03-07T12:00:03.484Z,0.70
2023-03-07T12:02:39.977Z,0.90
2023-03-07T12:05:39.484Z,0.65
2023-03-07T12:08:22.157Z,0.85
2023-03-07T12:11:08.974Z,1.30
2023-03-07T12:13:54.747Z,2.08
2023-03-07T12:16:46.480Z,0.70
2023-03-07T12:19:35.720Z,1.75
2023-03-07T12:22:16.850Z,4.75
2023-03-07T12:24:58.722Z,2.63
2023-03-07T12:27:33.757Z,4.85
2023-03-07T12:30:13.195Z,5.03
2023-03-07T12:32:40.961Z,0.90
2023-03-07T12:35:32.761Z,1.25
2023-03-07T12:38:30.553Z,1.92
2023-03-07T12:41:25.457Z,5.90
2023-03-07T12:44:03.941Z,9.32
2023-03-07T12:46:44.739Z,11.48
2023-03-07T12:49:40.975Z,7.43
2023-03-07T12:52:25.079Z,7.65
2023-03-07T12:55:18.942Z,10.93
2023-03-07T12:58:04.112Z,3.47
2023-03-07T13:00:35.658Z,3.10
2023-03-07T13:03:06.663Z,1.73
2023-03-07T13:05:43.923Z,1.45
2023-03-07T13:08:22.254Z,1.50
2023-03-07T13:10:54.028Z,1.40
2023-03-07T13:13:43.688Z,3.47
2023-03-07T13:16:43.214Z,1.52
2023-03-07T13:19:35.182Z,1.63
2023-03-07T13:22:15.712Z,1.40
2023-03-07T13:24:44.604Z,1.10
2023-03-07T13:27:29.846Z,1.20
2023-03-07T13:30:16.170Z,1.25
2023-03-07T13:32:52.583Z,0.55
2023-03-07T13:37:59.692Z,0.60
2023-03-07T13:40:35.467Z,0.20
2023-03-07T13:43:27.585Z,0.52
2023-03-07T13:46:02.136Z,0.77
2023-03-07T13:48:29.974Z,0.60
2023-03-07T13:50:57.367Z,0.50
2023-03-07T13:53:43.127Z,1.80
2023-03-07T13:56:10.659Z,6.35
2023-03-07T13:59:14.696Z,6.03
2023-03-07T14:01:48.518Z,1.17
2023-03-07T14:04:17.021Z,11.30
2023-03-07T14:06:53.046Z,2.15
2023-03-07T14:09:29.108Z,3.25
2023-03-07T14:12:24.620Z,3.35
2023-03-07T14:15:09.039Z,0.98
2023-03-07T14:18:11.858Z,2.72
2023-03-07T14:20:58.389Z,0.57
2023-03-07T14:24:00.234Z,0.45
2023-03-07T14:26:39.189Z,0.22
2023-03-07T14:29:22.414Z,0.38
2023-03-07T14:31:53.254Z,0.35
2023-03-07T14:34:33.907Z,0.70
2023-03-07T14:37:06.861Z,0.50
2023-03-07T14:39:43.151Z,0.57
2023-03-07T14:42:10.505Z,0.30
2023-03-07T14:45:31.294Z,0.50
2023-03-07T14:48:21.078Z,0.30
2023-03-07T14:50:48.832Z,0.68
2023-03-07T14:53:21.581Z,0.40
2023-03-07T14:55:54.827Z,0.60
2023-03-07T14:58:25.806Z,0.17
2023-03-07T15:01:11.248Z,0.30
2023-03-07T15:03:49.960Z,0.40
2023-03-07T15:06:28.542Z,0.30
2023-03-07T15:09:01.408Z,0.70
2023-03-07T15:11:49.050Z,0.65
2023-03-07T15:14:35.625Z,0.30
2023-03-07T15:17:06.345Z,0.32
2023-03-07T15:19:34.130Z,0.30
2023-03-07T15:22:07.462Z,0.57
2023-03-07T15:24:38.273Z,0.30
2023-03-07T15:27:10.481Z,1.42
2023-03-07T15:29:50.255Z,0.30
2023-03-07T15:32:33.899Z,0.70
2023-03-07T15:35:21.814Z,0.85
2023-03-07T15:38:00.199Z,1.67
2023-03-07T15:40:32.115Z,1.85
2023-03-07T15:43:04.984Z,0.80
2023-03-07T15:45:41.565Z,0.75
2023-03-07T15:51:30.103Z,3.35
2023-03-07T15:55:11.385Z,0.65
2023-03-07T16:13:18.669Z,0.35
2023-03-07T16:32:35.716Z,1.60
2023-03-07T16:35:39.238Z,2.22
2023-03-07T16:51:51.051Z,0.60
2023-03-07T16:58:31.553Z,3.47
2023-03-07T17:01:06.915Z,3.40
2023-03-07T17:03:39.531Z,8.77
2023-03-07T17:07:04.775Z,19.13
2023-03-07T17:14:53.915Z,15.52
2023-03-07T17:17:54.723Z,4.97
2023-03-07T17:20:36.732Z,3.60
2023-03-07T17:23:10.730Z,2.63
2023-03-07T17:25:46.584Z,3.50
2023-03-07T17:28:41.439Z,7.88
2023-03-07T17:31:52.667Z,1.08
2023-03-07T17:34:36.119Z,2.22
2023-03-07T17:37:25.592Z,1.10
2023-03-07T17:39:54.469Z,0.93
2023-03-07T17:42:25.103Z,1.02
2023-03-07T17:44:52.836Z,0.60
2023-03-07T17:47:20.394Z,0.60
2023-03-07T17:49:50.236Z,0.65
2023-03-07T17:52:20.816Z,3.53
2023-03-07T17:54:48.827Z,9.57
2023-03-07T17:57:16.677Z,2.10
2023-03-07T17:59:46.486Z,1.48
2023-03-07T18:02:16.630Z,2.42
2023-03-07T18:04:44.122Z,1.60
2023-03-07T18:07:13.576Z,2.10
2023-03-07T18:09:40.998Z,3.75
2023-03-07T18:12:11.346Z,1.45
2023-03-07T18:14:38.877Z,2.15
2023-03-07T18:17:48.759Z,2.33
2023-03-07T18:20:37.010Z,0.85
2023-03-07T18:23:30.107Z,1.80
2023-03-07T18:26:05.759Z,2.85
2023-03-07T18:28:35.736Z,2.88
2023-03-07T18:31:06.377Z,1.95
2023-03-07T18:33:34.989Z,1.02
2023-03-07T18:36:08.223Z,1.33
2023-03-07T18:38:35.759Z,1.70
2023-03-07T18:41:18.563Z,11.30
2023-03-07T18:43:46.407Z,7.65
2023-03-07T18:46:16.646Z,7.00
2023-03-07T18:51:16.389Z,1.58
2023-03-07T18:53:43.897Z,1.83
2023-03-07T18:56:28.432Z,1.60
2023-03-07T18:59:01.124Z,1.92
2023-03-07T19:01:34.621Z,2.45
2023-03-07T19:04:03.634Z,4.75
2023-03-07T19:06:50.768Z,3.28
2023-03-07T19:09:26.176Z,2.47
2023-03-07T19:11:57.216Z,1.15
2023-03-07T19:14:40.388Z,3.38
2023-03-07T19:17:21.506Z,2.03
2023-03-07T19:19:56.308Z,2.08
2023-03-07T19:22:31.987Z,10.07
2023-03-07T19:25:07.168Z,11.65
2023-03-07T19:27:34.743Z,11.00
2023-03-07T19:30:02.484Z,32.72
2023-03-07T19:32:43.382Z,12.75
2023-03-07T19:35:12.172Z,9.88
2023-03-07T19:37:40.293Z,3.97
2023-03-07T19:40:18.594Z,3.83
2023-03-07T19:42:53.324Z,3.78
2023-03-07T19:45:27.419Z,4.13
2023-03-07T19:47:57.456Z,4.05
2023-03-07T19:50:25.318Z,3.38
2023-03-07T19:53:07.299Z,4.10
2023-03-07T19:55:37.220Z,2.53
2023-03-07T20:05:45.538Z,1.33
2023-03-07T20:08:13.400Z,1.15
2023-03-07T20:10:44.591Z,1.25
2023-03-07T20:13:15.979Z,0.90
2023-03-07T20:47:53.678Z,1.25
2023-03-07T20:50:23.878Z,0.70
2023-03-07T20:55:20.963Z,0.70
2023-03-07T20:58:01.303Z,1.13
2023-03-07T21:00:32.327Z,0.77
2023-03-07T21:06:01.113Z,0.85
2023-03-07T21:08:55.438Z,1.13
2023-03-07T21:16:02.403Z,1.20
2023-03-07T21:19:11.803Z,1.20
2023-03-07T21:25:30.685Z,0.80
2023-03-07T21:28:14.650Z,1.50
2023-03-07T21:31:30.441Z,0.60
2023-03-07T21:34:06.549Z,0.80
2023-03-07T21:36:40.526Z,0.60
2023-03-07T21:39:50.955Z,1.05
2023-03-07T21:51:00.500Z,1.00
2023-03-07T21:53:43.269Z,1.00
2023-03-07T22:02:55.370Z,1.20
2023-03-07T22:10:37.740Z,0.90
2023-03-07T22:24:11.572Z,0.93
2023-03-07T22:31:59.480Z,0.88
2023-03-07T22:34:32.388Z,0.80
2023-03-07T22:37:00.263Z,0.52
2023-03-07T22:39:29.711Z,0.70
2023-03-07T22:42:02.105Z,1.10
2023-03-07T22:45:20.128Z,1.00
2023-03-07T22:49:36.566Z,0.70
2023-03-07T22:52:44.137Z,0.65
2023-03-07T22:55:42.847Z,0.80
2023-03-07T22:58:11.301Z,0.90
2023-03-07T23:00:46.639Z,0.40
2023-03-07T23:03:42.864Z,0.70
2023-03-07T23:13:38.525Z,1.05
2023-03-07T23:16:30.476Z,0.50
2023-03-07T23:19:34.282Z,1.10
2023-03-07T23:22:05.150Z,0.43
2023-03-07T23:24:34.226Z,0.75
2023-03-07T23:27:04.506Z,0.47
2023-03-07T23:30:15.587Z,0.50
2023-03-07T23:34:04.060Z,0.47
2023-03-07T23:37:49.864Z,1.02
2023-03-07T23:41:04.293Z,0.85
2023-03-07T23:43:41.333Z,2.50
2023-03-07T23:48:54.016Z,1.02
2023-03-07T23:51:45.141Z,0.70
2023-03-07T23:54:23.804Z,0.45
2023-03-07T23:56:59.375Z,0.50
2023-03-07T23:59:37.156Z,0.50
